createdAt,value
2022-11-10T00:01:07.485Z,100249.41
2022-11-10T00:03:35.948Z,100258.59
2022-11-10T00:06:05.854Z,100253.06
2022-11-10T00:08:33.146Z,100253.41
2022-11-10T00:11:06.386Z,100235.09
2022-11-10T00:13:56.445Z,100237.63
2022-11-10T00:16:42.310Z,100249.16
2022-11-10T00:19:09.723Z,100250.88
2022-11-10T00:21:37.903Z,100257.06
2022-11-10T00:24:05.769Z,100258.53
2022-11-10T00:26:32.681Z,100252.28
2022-11-10T00:28:59.649Z,100263.59
2022-11-10T00:31:28.552Z,100272.31
2022-11-10T00:33:55.925Z,100282.00
2022-11-10T00:36:23.646Z,100271.44
2022-11-10T00:38:51.871Z,100270.09
2022-11-10T00:41:18.968Z,100263.84
2022-11-10T00:43:46.086Z,100278.69
2022-11-10T00:46:13.215Z,100278.81
2022-11-10T00:48:40.691Z,100275.91
2022-11-10T00:51:09.847Z,100287.25
2022-11-10T00:53:36.741Z,100281.09
2022-11-10T00:56:03.677Z,100275.06
2022-11-10T00:58:30.571Z,100259.09
2022-11-10T01:01:03.039Z,100274.69
2022-11-10T01:03:30.221Z,100280.47
2022-11-10T01:05:57.150Z,100283.28
2022-11-10T01:08:24.542Z,100281.59
2022-11-10T01:10:51.480Z,100282.78
2022-11-10T01:13:18.435Z,100273.31
2022-11-10T01:15:45.381Z,100273.78
2022-11-10T01:18:12.310Z,100279.66
2022-11-10T01:20:39.259Z,100275.50
2022-11-10T01:23:06.156Z,100269.25
2022-11-10T01:25:33.059Z,100277.63
2022-11-10T01:27:59.986Z,100280.63
2022-11-10T01:30:26.976Z,100279.50
2022-11-10T01:32:55.965Z,100283.94
2022-11-10T01:35:22.901Z,100275.00
2022-11-10T01:37:52.717Z,100270.50
2022-11-10T01:40:20.497Z,100271.94
2022-11-10T01:42:53.442Z,100276.59
2022-11-10T01:45:23.321Z,100274.78
2022-11-10T01:47:56.488Z,100276.13
2022-11-10T01:50:30.197Z,100282.72
2022-11-10T01:53:02.484Z,100271.72
2022-11-10T01:55:30.523Z,100275.00
2022-11-10T01:57:57.877Z,100279.22
2022-11-10T02:00:25.013Z,100278.44
2022-11-10T02:03:32.376Z,100277.97
2022-11-10T02:06:00.044Z,100281.66
2022-11-10T02:08:27.846Z,100279.50
2022-11-10T02:10:55.735Z,100276.75
2022-11-10T02:13:23.101Z,100287.03
2022-11-10T02:15:50.794Z,100289.31
2022-11-10T02:18:17.782Z,100280.34
2022-11-10T02:20:46.133Z,100281.53
2022-11-10T02:23:36.382Z,100288.28
2022-11-10T02:26:07.028Z,100280.63
2022-11-10T02:28:37.065Z,100283.97
2022-11-10T02:31:05.371Z,100294.03
2022-11-10T02:33:32.300Z,100291.66
2022-11-10T02:35:59.259Z,100295.44
2022-11-10T02:38:26.167Z,100306.19
2022-11-10T02:40:53.106Z,100311.41
2022-11-10T02:43:20.490Z,100309.22
2022-11-10T02:45:47.774Z,100308.59
2022-11-10T02:48:15.962Z,100306.06
2022-11-10T02:50:43.286Z,100309.00
2022-11-10T02:53:10.276Z,100319.41
2022-11-10T02:55:37.242Z,100313.00
2022-11-10T02:58:04.412Z,100317.22
2022-11-10T03:00:31.522Z,100329.41
2022-11-10T03:03:02.102Z,100320.56
2022-11-10T03:05:30.486Z,100320.25
2022-11-10T03:08:01.508Z,100327.84
2022-11-10T03:10:30.418Z,100322.34
2022-11-10T03:12:59.994Z,100320.81
2022-11-10T03:15:28.000Z,100309.13
2022-11-10T03:17:55.870Z,100320.69
2022-11-10T03:20:23.336Z,100307.28
2022-11-10T03:22:50.329Z,100321.53
2022-11-10T03:25:17.304Z,100319.66
2022-11-10T03:27:44.865Z,100318.63
2022-11-10T03:30:12.228Z,100324.72
2022-11-10T03:32:39.199Z,100324.69
2022-11-10T03:35:06.525Z,100332.47
2022-11-10T03:37:33.472Z,100335.28
2022-11-10T03:40:00.449Z,100329.91
2022-11-10T03:42:27.413Z,100331.03
2022-11-10T03:44:54.364Z,100321.69
2022-11-10T03:47:21.401Z,100327.84
2022-11-10T03:49:48.399Z,100324.16
2022-11-10T03:52:16.033Z,100333.06
2022-11-10T03:54:43.083Z,100337.06
2022-11-10T03:57:10.032Z,100344.94
2022-11-10T03:59:36.945Z,100338.03
2022-11-10T04:02:04.129Z,100353.72
2022-11-10T04:04:49.638Z,100348.41
2022-11-10T04:07:35.136Z,100340.38
2022-11-10T04:10:02.145Z,100348.72
2022-11-10T04:12:47.827Z,100341.69
2022-11-10T04:15:33.402Z,100348.72
2022-11-10T04:18:20.318Z,100351.88
2022-11-10T04:20:48.478Z,100362.28
2022-11-10T04:23:29.188Z,100353.00
2022-11-10T04:26:26.173Z,100356.00
2022-11-10T04:28:58.160Z,100365.16
2022-11-10T04:31:27.684Z,100370.50
2022-11-10T04:33:58.228Z,100362.75
2022-11-10T04:36:29.456Z,100357.22
2022-11-10T04:38:57.245Z,100359.69
2022-11-10T04:41:26.115Z,100366.97
2022-11-10T04:43:54.080Z,100372.47
2022-11-10T04:46:31.325Z,100377.31
2022-11-10T04:48:59.328Z,100370.78
2022-11-10T04:51:30.393Z,100381.44
2022-11-10T04:53:58.005Z,100380.38
2022-11-10T04:56:26.782Z,100367.16
2022-11-10T04:58:54.768Z,100376.91
2022-11-10T05:01:28.370Z,100386.13
2022-11-10T05:03:56.076Z,100387.97
2022-11-10T05:06:23.604Z,100383.47
2022-11-10T05:08:51.316Z,100379.34
2022-11-10T05:11:18.786Z,100375.94
2022-11-10T05:13:46.051Z,100383.13
2022-11-10T05:16:13.252Z,100376.28
2022-11-10T05:18:41.620Z,100381.50
2022-11-10T05:21:08.846Z,100380.31
2022-11-10T05:23:38.958Z,100390.19
2022-11-10T05:26:11.936Z,100400.25
2022-11-10T05:28:44.066Z,100399.22
2022-11-10T05:31:12.365Z,100411.03
2022-11-10T05:33:39.930Z,100406.91
2022-11-10T05:36:08.030Z,100418.66
2022-11-10T05:38:39.027Z,100421.53
2022-11-10T05:41:10.089Z,100427.94
2022-11-10T05:43:36.990Z,100422.41
2022-11-10T05:46:03.985Z,100427.34
2022-11-10T05:48:30.996Z,100431.47
2022-11-10T05:50:57.999Z,100438.72
2022-11-10T05:53:25.208Z,100443.94
2022-11-10T05:55:52.413Z,100453.75
2022-11-10T05:58:19.362Z,100458.03
2022-11-10T06:00:46.385Z,100459.97
2022-11-10T06:03:17.369Z,100462.94
2022-11-10T06:05:44.716Z,100466.09
2022-11-10T06:08:12.131Z,100470.56
2022-11-10T06:10:40.226Z,100467.88
2022-11-10T06:13:07.493Z,100474.66
2022-11-10T06:15:34.468Z,100479.91
2022-11-10T06:18:02.200Z,100487.97
2022-11-10T06:20:29.466Z,100479.22
2022-11-10T06:23:21.165Z,100490.03
2022-11-10T06:25:48.371Z,100487.03
2022-11-10T06:28:15.385Z,100502.09
2022-11-10T06:30:42.294Z,100500.13
2022-11-10T06:33:09.582Z,100505.34
2022-11-10T06:35:36.585Z,100506.59
2022-11-10T06:38:11.698Z,100504.47
2022-11-10T06:40:38.627Z,100501.91
2022-11-10T06:43:05.656Z,100502.94
2022-11-10T06:45:32.597Z,100519.41
2022-11-10T06:48:09.660Z,100531.63
2022-11-10T06:50:36.785Z,100543.13
2022-11-10T06:53:04.203Z,100539.72
2022-11-10T06:55:31.397Z,100544.09
2022-11-10T06:57:58.676Z,100549.69
2022-11-10T07:00:28.556Z,100541.06
2022-11-10T07:03:07.158Z,100554.47
2022-11-10T07:05:36.542Z,100555.94
2022-11-10T07:08:18.303Z,100557.06
2022-11-10T07:10:55.053Z,100547.53
2022-11-10T07:13:23.316Z,100555.97
2022-11-10T07:15:51.076Z,100556.16
2022-11-10T07:18:18.075Z,100553.56
2022-11-10T07:20:46.259Z,100560.59
2022-11-10T07:23:13.261Z,100560.78
2022-11-10T07:25:40.166Z,100560.78
2022-11-10T07:28:10.594Z,100571.63
2022-11-10T07:30:37.901Z,100568.88
2022-11-10T07:33:09.441Z,100564.56
2022-11-10T07:35:36.887Z,100578.75
2022-11-10T07:38:12.488Z,100571.56
2022-11-10T07:40:39.821Z,100572.53
2022-11-10T07:43:06.933Z,100587.47
2022-11-10T07:45:33.981Z,100583.91
2022-11-10T07:48:06.664Z,100591.34
2022-11-10T07:50:33.937Z,100584.09
2022-11-10T07:53:16.353Z,100596.09
2022-11-10T07:55:45.195Z,100592.94
2022-11-10T07:58:15.228Z,100589.63
2022-11-10T08:00:43.313Z,100598.56
2022-11-10T08:03:17.050Z,100601.13
2022-11-10T08:05:44.302Z,100591.97
2022-11-10T08:08:12.155Z,100610.38
2022-11-10T08:10:40.953Z,100621.56
2022-11-10T08:13:10.992Z,100625.06
2022-11-10T08:15:39.163Z,100616.84
2022-11-10T08:18:19.344Z,100626.91
2022-11-10T08:20:46.483Z,100631.78
2022-11-10T08:23:14.612Z,100632.00
2022-11-10T08:25:42.055Z,100628.06
2022-11-10T08:28:18.159Z,100631.69
2022-11-10T08:30:48.399Z,100639.25
2022-11-10T08:33:19.608Z,100639.72
2022-11-10T08:35:51.083Z,100645.09
2022-11-10T08:38:24.548Z,100646.25
2022-11-10T08:40:51.723Z,100652.31
2022-11-10T08:43:18.998Z,100653.38
2022-11-10T08:45:46.613Z,100662.41
2022-11-10T08:48:19.970Z,100669.44
2022-11-10T08:50:49.636Z,100666.13
2022-11-10T08:53:23.961Z,100671.28
2022-11-10T08:55:52.189Z,100675.72
2022-11-10T08:58:24.049Z,100691.13
2022-11-10T09:00:51.728Z,100690.44
2022-11-10T09:03:23.917Z,100701.44
2022-11-10T09:05:58.081Z,100689.50
2022-11-10T09:08:26.463Z,100701.78
2022-11-10T09:10:53.432Z,100692.59
2022-11-10T09:13:29.071Z,100697.94
2022-11-10T09:16:06.316Z,100711.34
2022-11-10T09:18:33.488Z,100703.28
2022-11-10T09:21:03.334Z,100709.34
2022-11-10T09:23:30.377Z,100713.44
2022-11-10T09:25:57.384Z,100714.44
2022-11-10T09:28:25.262Z,100714.75
2022-11-10T09:30:52.970Z,100711.63
2022-11-10T09:33:20.594Z,100711.09
2022-11-10T09:35:47.983Z,100713.22
2022-11-10T09:38:15.084Z,100722.00
2022-11-10T09:40:50.934Z,100722.78
2022-11-10T09:43:41.373Z,100716.22
2022-11-10T09:46:41.872Z,100722.94
2022-11-10T09:49:49.850Z,100726.56
2022-11-10T09:52:18.185Z,100732.75
2022-11-10T09:55:24.758Z,100735.94
2022-11-10T09:57:56.396Z,100736.44
2022-11-10T10:00:23.411Z,100734.94
2022-11-10T10:03:01.232Z,100736.09
2022-11-10T10:06:02.617Z,100740.25
2022-11-10T10:08:47.719Z,100734.56
2022-11-10T10:11:45.020Z,100737.31
2022-11-10T10:14:52.614Z,100749.56
2022-11-10T10:17:41.696Z,100743.22
2022-11-10T10:20:38.027Z,100750.31
2022-11-10T10:24:08.422Z,100753.56
2022-11-10T10:26:39.265Z,100751.28
2022-11-10T10:29:16.480Z,100753.63
2022-11-10T10:31:48.749Z,100751.53
2022-11-10T10:34:19.947Z,100746.28
2022-11-10T10:36:47.411Z,100744.78
2022-11-10T10:39:31.343Z,100749.78
2022-11-10T10:41:58.951Z,100753.03
2022-11-10T10:44:26.202Z,100754.09
2022-11-10T10:46:59.722Z,100759.47
2022-11-10T10:49:33.794Z,100751.75
2022-11-10T10:52:14.955Z,100756.69
2022-11-10T10:54:42.025Z,100755.94
2022-11-10T10:57:32.495Z,100764.25
2022-11-10T11:00:33.212Z,100762.44
2022-11-10T11:03:27.288Z,100755.47
2022-11-10T11:06:07.647Z,100753.44
2022-11-10T11:08:35.204Z,100774.56
2022-11-10T11:11:11.384Z,100767.84
2022-11-10T11:13:38.840Z,100766.56
2022-11-10T11:16:09.463Z,100765.53
2022-11-10T11:18:40.127Z,100766.59
2022-11-10T11:21:33.645Z,100777.47
2022-11-10T11:25:06.963Z,100773.50
2022-11-10T11:27:57.595Z,100774.13
2022-11-10T11:30:40.321Z,100773.91
2022-11-10T11:33:47.295Z,100778.03
2022-11-10T11:37:11.149Z,100787.00
2022-11-10T11:40:07.002Z,100780.50
2022-11-10T11:43:08.992Z,100787.25
2022-11-10T11:46:00.524Z,100784.03
2022-11-10T11:48:52.324Z,100781.75
2022-11-10T11:51:49.561Z,100788.44
2022-11-10T11:54:28.647Z,100791.50
2022-11-10T11:57:13.569Z,100796.16
2022-11-10T12:00:10.433Z,100797.72
2022-11-10T12:03:10.637Z,100803.47
2022-11-10T12:06:16.361Z,100803.34
2022-11-10T12:09:10.064Z,100808.81
2022-11-10T12:12:14.417Z,100811.56
2022-11-10T12:15:34.395Z,100816.94
2022-11-10T12:18:21.723Z,100812.28
2022-11-10T12:20:54.564Z,100816.66
2022-11-10T12:23:43.036Z,100817.53
2022-11-10T12:26:35.299Z,100817.00
2022-11-10T12:29:38.804Z,100826.44
2022-11-10T12:32:17.404Z,100830.75
2022-11-10T12:34:53.116Z,100837.06
2022-11-10T12:37:32.756Z,100842.56
2022-11-10T12:40:21.336Z,100841.06
2022-11-10T12:43:00.196Z,100845.56
2022-11-10T12:45:45.243Z,100853.84
2022-11-10T12:48:14.918Z,100848.47
2022-11-10T12:51:22.005Z,100847.25
2022-11-10T12:53:49.790Z,100843.94
2022-11-10T12:56:30.151Z,100850.16
2022-11-10T12:59:32.447Z,100861.31
2022-11-10T13:02:33.598Z,100861.91
2022-11-10T13:05:24.292Z,100864.84
2022-11-10T13:08:04.850Z,100865.94
2022-11-10T13:10:31.931Z,100867.06
2022-11-10T13:13:19.376Z,100873.78
2022-11-10T13:15:50.590Z,100874.72
2022-11-10T13:18:30.965Z,100883.03
2022-11-10T13:20:59.618Z,100891.53
2022-11-10T13:23:29.309Z,100886.00
2022-11-10T13:26:05.889Z,100900.56
2022-11-10T13:28:47.801Z,100897.59
2022-11-10T13:31:40.271Z,100896.56
2022-11-10T13:34:26.700Z,100903.81
2022-11-10T13:36:53.888Z,100901.31
2022-11-10T13:39:20.738Z,100907.25
2022-11-10T13:41:49.107Z,100902.03
2022-11-10T13:44:26.130Z,100920.19
2022-11-10T13:47:07.906Z,100920.38
2022-11-10T13:49:54.894Z,100926.91
2022-11-10T13:52:47.286Z,100921.97
2022-11-10T13:55:57.905Z,100939.56
2022-11-10T13:58:29.601Z,100937.34
2022-11-10T14:01:30.425Z,100939.28
2022-11-10T14:04:02.892Z,100934.53
2022-11-10T14:06:51.701Z,100954.16
2022-11-10T14:09:40.000Z,100956.88
2022-11-10T14:12:23.348Z,100962.22
2022-11-10T14:15:03.106Z,100962.69
2022-11-10T14:17:35.707Z,100964.19
2022-11-10T14:20:04.189Z,100973.31
2022-11-10T14:22:43.269Z,100972.94
2022-11-10T14:25:36.210Z,100971.47
2022-11-10T14:28:18.491Z,100978.53
2022-11-10T14:30:53.379Z,100972.75
2022-11-10T14:33:21.243Z,100983.19
2022-11-10T14:35:52.649Z,100990.22
2022-11-10T14:38:27.374Z,100991.50
2022-11-10T14:40:58.750Z,101001.69
2022-11-10T14:43:34.578Z,101008.38
2022-11-10T14:46:03.634Z,101016.47
2022-11-10T14:48:36.976Z,101006.81
2022-11-10T14:51:22.345Z,101019.69
2022-11-10T14:53:53.501Z,101022.94
2022-11-10T14:56:29.308Z,101029.59
2022-11-10T14:58:59.319Z,101025.09
2022-11-10T15:01:38.764Z,101040.19
2022-11-10T15:04:10.848Z,101043.63
2022-11-10T15:06:41.881Z,101031.19
2022-11-10T15:09:32.159Z,101049.50
2022-11-10T15:12:25.866Z,101052.28
2022-11-10T15:15:00.987Z,101051.25
2022-11-10T15:17:51.682Z,101059.88
2022-11-10T15:20:39.971Z,101059.44
2022-11-10T15:23:33.818Z,101066.56
2022-11-10T15:26:00.951Z,101058.09
2022-11-10T15:28:34.486Z,101064.50
2022-11-10T15:31:27.913Z,101072.63
2022-11-10T15:34:04.850Z,101069.94
2022-11-10T15:36:34.526Z,101080.72
2022-11-10T15:39:23.418Z,101086.44
2022-11-10T15:41:56.897Z,101093.28
2022-11-10T15:44:28.132Z,101095.75
2022-11-10T15:46:56.917Z,101091.44
2022-11-10T15:49:35.958Z,101093.94
2022-11-10T15:52:11.387Z,101092.13
2022-11-10T15:54:38.484Z,101099.66
2022-11-10T15:57:15.230Z,101094.31
2022-11-10T15:59:42.658Z,101102.94
2022-11-10T16:02:23.999Z,101109.16
2022-11-10T16:04:59.590Z,101104.19
2022-11-10T16:07:27.100Z,101115.47
2022-11-10T16:09:54.049Z,101127.13
2022-11-10T16:12:22.645Z,101131.53
2022-11-10T16:14:53.000Z,101129.56
2022-11-10T16:17:20.115Z,101147.00
2022-11-10T16:19:47.435Z,101153.56
2022-11-10T16:22:14.669Z,101153.50
2022-11-10T16:24:42.082Z,101156.66
2022-11-10T16:27:14.297Z,101172.09
2022-11-10T16:29:42.840Z,101179.25
2022-11-10T16:32:11.750Z,101181.84
2022-11-10T16:34:38.764Z,101190.16
2022-11-10T16:37:05.889Z,101197.25
2022-11-10T16:39:32.895Z,101185.47
2022-11-10T16:41:59.888Z,101189.72
2022-11-10T16:44:26.854Z,101189.38
2022-11-10T16:46:57.301Z,101199.50
2022-11-10T16:49:35.620Z,101205.34
2022-11-10T16:52:12.145Z,101199.34
2022-11-10T16:54:39.028Z,101206.44
2022-11-10T16:57:17.179Z,101217.06
2022-11-10T16:59:45.755Z,101205.97
2022-11-10T17:02:35.766Z,101208.88
2022-11-10T17:05:03.538Z,101209.41
2022-11-10T17:07:30.671Z,101205.09
2022-11-10T17:09:59.182Z,101210.78
2022-11-10T17:12:26.231Z,101214.22
2022-11-10T17:14:53.248Z,101211.88
2022-11-10T17:17:20.796Z,101214.53
2022-11-10T17:19:49.444Z,101207.63
2022-11-10T17:22:21.692Z,101211.13
2022-11-10T17:24:54.909Z,101208.78
2022-11-10T17:27:21.953Z,101217.22
2022-11-10T17:29:49.131Z,101219.59
2022-11-10T17:32:16.029Z,101224.06
2022-11-10T17:34:42.990Z,101229.19
2022-11-10T17:37:13.893Z,101232.09
2022-11-10T17:39:41.446Z,101232.31
2022-11-10T17:42:13.689Z,101236.13
2022-11-10T17:44:40.636Z,101240.56
2022-11-10T17:47:07.682Z,101250.16
2022-11-10T17:49:34.601Z,101246.69
2022-11-10T17:52:01.539Z,101250.53
2022-11-10T17:54:28.495Z,101252.97
2022-11-10T17:56:55.405Z,101261.66
2022-11-10T17:59:22.366Z,101268.25
2022-11-10T18:01:49.319Z,101264.47
2022-11-10T18:04:16.282Z,101266.22
2022-11-10T18:06:44.209Z,101263.59
2022-11-10T18:09:11.143Z,101262.59
2022-11-10T18:11:38.509Z,101270.81
2022-11-10T18:14:05.495Z,101265.47
2022-11-10T18:16:32.895Z,101265.00
2022-11-10T18:18:59.887Z,101266.44
2022-11-10T18:21:27.481Z,101264.44
2022-11-10T18:23:54.451Z,101273.22
2022-11-10T18:26:21.417Z,101270.72
2022-11-10T18:28:50.104Z,101267.78
2022-11-10T18:31:18.977Z,101269.31
2022-11-10T18:33:46.018Z,101275.81
2022-11-10T18:36:12.994Z,101271.34
2022-11-10T18:38:39.963Z,101278.50
2022-11-10T18:41:26.275Z,101281.50
2022-11-10T18:43:53.228Z,101271.56
2022-11-10T18:46:20.268Z,101271.88
2022-11-10T18:48:47.857Z,101279.72
2022-11-10T18:51:16.362Z,101273.38
2022-11-10T18:53:43.400Z,101283.44
2022-11-10T18:56:10.451Z,101293.88
2022-11-10T18:58:37.586Z,101284.41
2022-11-10T19:01:10.148Z,101283.84
2022-11-10T19:03:37.755Z,101291.13
2022-11-10T19:06:05.217Z,101288.25
2022-11-10T19:08:32.309Z,101294.06
2022-11-10T19:10:59.762Z,101301.63
2022-11-10T19:13:26.748Z,101310.28
2022-11-10T19:15:55.747Z,101311.13
2022-11-10T19:18:22.704Z,101317.19
2022-11-10T19:20:49.674Z,101322.59
2022-11-10T19:23:17.773Z,101328.25
2022-11-10T19:25:44.873Z,101326.69
2022-11-10T19:28:12.059Z,101327.84
2022-11-10T19:30:39.740Z,101342.59
2022-11-10T19:33:07.316Z,101346.53
2022-11-10T19:35:34.356Z,101355.84
2022-11-10T19:38:01.271Z,101362.00
2022-11-10T19:40:28.247Z,101362.44
2022-11-10T19:42:55.222Z,101364.72
2022-11-10T19:45:22.445Z,101363.56
2022-11-10T19:47:49.377Z,101375.00
2022-11-10T19:50:16.593Z,101379.47
2022-11-10T19:52:43.552Z,101384.63
2022-11-10T19:55:10.596Z,101387.75
2022-11-10T19:57:37.656Z,101376.56
2022-11-10T20:00:07.009Z,101381.44
2022-11-10T20:02:33.989Z,101379.47
2022-11-10T20:05:12.883Z,101380.28
2022-11-10T20:07:58.743Z,101378.28
2022-11-10T20:10:25.926Z,101368.88
2022-11-10T20:12:53.120Z,101377.78
2022-11-10T20:15:20.076Z,101382.38
2022-11-10T20:17:47.060Z,101382.69
2022-11-10T20:20:14.842Z,101377.66
2022-11-10T20:22:41.785Z,101380.28
2022-11-10T20:25:09.664Z,101380.63
2022-11-10T20:27:36.723Z,101384.53
2022-11-10T20:30:04.959Z,101383.81
2022-11-10T20:32:32.194Z,101385.97
2022-11-10T20:35:00.692Z,101388.00
2022-11-10T20:37:27.668Z,101390.91
2022-11-10T20:39:54.618Z,101398.06
2022-11-10T20:42:21.572Z,101400.91
2022-11-10T20:44:48.495Z,101394.53
2022-11-10T20:47:15.526Z,101402.19
2022-11-10T20:49:42.611Z,101401.16
2022-11-10T20:52:09.563Z,101399.09
2022-11-10T20:54:36.501Z,101397.97
2022-11-10T20:57:03.475Z,101394.88
2022-11-10T20:59:30.462Z,101394.91
2022-11-10T21:01:57.572Z,101396.53
2022-11-10T21:04:24.662Z,101387.16
2022-11-10T21:06:51.649Z,101390.00
2022-11-10T21:09:19.932Z,101400.06
2022-11-10T21:12:05.475Z,101398.09
2022-11-10T21:14:32.402Z,101392.34
2022-11-10T21:16:59.355Z,101388.63
2022-11-10T21:19:26.409Z,101398.69
2022-11-10T21:21:53.913Z,101405.31
2022-11-10T21:24:20.999Z,101407.06
2022-11-10T21:26:49.105Z,101416.97
2022-11-10T21:29:16.094Z,101414.47
2022-11-10T21:31:43.070Z,101422.31
2022-11-10T21:34:10.128Z,101417.50
2022-11-10T21:36:37.088Z,101419.47
2022-11-10T21:39:04.178Z,101429.00
2022-11-10T21:41:31.915Z,101431.25
2022-11-10T21:43:59.072Z,101424.28
2022-11-10T21:46:26.011Z,101419.34
2022-11-10T21:48:53.136Z,101421.63
2022-11-10T21:51:21.117Z,101421.81
2022-11-10T21:53:48.712Z,101425.72
2022-11-10T21:56:15.668Z,101421.09
2022-11-10T21:58:42.573Z,101424.31
2022-11-10T22:01:16.852Z,101429.88
2022-11-10T22:03:43.943Z,101430.25
2022-11-10T22:06:16.043Z,101434.47
2022-11-10T22:08:46.540Z,101442.72
2022-11-10T22:11:35.843Z,101435.00
2022-11-10T22:14:21.744Z,101442.22
2022-11-10T22:17:09.602Z,101429.09
2022-11-10T22:19:37.590Z,101433.38
2022-11-10T22:22:04.680Z,101433.41
2022-11-10T22:24:32.128Z,101430.28
2022-11-10T22:27:01.603Z,101434.00
2022-11-10T22:29:32.239Z,101430.09
2022-11-10T22:32:03.347Z,101438.16
2022-11-10T22:34:30.321Z,101439.91
2022-11-10T22:36:59.475Z,101448.16
2022-11-10T22:39:46.822Z,101456.69
2022-11-10T22:42:32.915Z,101458.09
2022-11-10T22:44:59.861Z,101456.63
2022-11-10T22:47:46.771Z,101457.72
2022-11-10T22:50:13.770Z,101461.34
2022-11-10T22:52:40.672Z,101469.03
2022-11-10T22:55:07.963Z,101470.13
2022-11-10T22:57:34.860Z,101470.66
2022-11-10T23:00:01.788Z,101469.34
2022-11-10T23:02:28.732Z,101468.09
2022-11-10T23:04:55.660Z,101490.66
2022-11-10T23:07:22.633Z,101483.06
2022-11-10T23:09:49.595Z,101482.78
2022-11-10T23:12:18.336Z,101486.41
2022-11-10T23:14:45.241Z,101486.44
2022-11-10T23:17:12.257Z,101478.91
2022-11-10T23:19:39.194Z,101483.50
2022-11-10T23:22:06.104Z,101484.19
2022-11-10T23:24:33.078Z,101488.34
2022-11-10T23:27:00.290Z,101491.88
2022-11-10T23:29:27.230Z,101483.59
2022-11-10T23:31:54.161Z,101489.88
2022-11-10T23:34:21.076Z,101494.53
2022-11-10T23:36:47.978Z,101490.44
2022-11-10T23:39:15.008Z,101491.09
2022-11-10T23:41:41.913Z,101486.13
2022-11-10T23:44:08.843Z,101486.06
2022-11-10T23:46:35.803Z,101492.19
2022-11-10T23:49:02.739Z,101496.22
2022-11-10T23:51:29.641Z,101498.84
2022-11-10T23:53:56.796Z,101499.38
2022-11-10T23:56:23.691Z,101503.81
2022-11-10T23:58:50.768Z,101511.69
